メインページ
METAR-TAF:

METAR-TAF

空港 :

広島, 日本

広島空港

緯度: 34-26N, 経度: 132-55E, 海抜: 331m

現時点の気象観測

当レポートは50分前の23:00(UTC)に作成
の風 3kt、東/北東から南東の間で変化する
気温 2°C
湿度 69%
気圧 1022 hPa
視程10km以上
1,500メートル以下は雲なし、積乱雲なし

METAR: RJOA 182300Z 09003KT 060V140 CAVOK 02/M03 Q1022

時間: 08:50 (23:50 UTC)

予報

当レポートは45分前の23:05(UTC)に作成
予報は19日の 00時(UTC)から 20日の 06時(UTC)まで有効
東/南東の風 4kt
視程10km以上
高度2000ftの雲はほとんどない

TAF: RJOA 182305Z 1900/2006 12004KT 9999 FEW020

4,000以上の空港の気象観測と天気予報(METAR報とTAF報)

利用可能な観測所は地図上に黄色い丸と赤い丸で示す。

丸の上にカーソルを重ねると観測所名を参照できる。

次にクリックすると気象観測と天気予報を参照できる。

マップの切り替え:黒色「×」印の緑ボタンをクリックして拡大、「-」印の緑ボタンをクリックして縮小、緑色の三角印をクリックして隣りの地図に切り替え


METAR-TAF: